Time,TemperatureF,DewpointF,PressureIn,WindDirection,WindDirectionDegrees,WindSpeedMPH,WindSpeedGustMPH,Humidity,HourlyPrecipIn,Conditions,Clouds,dailyrainin,SoftwareType,DateUTC
2017-07-25 00:10:00,66.3,35.0,29.85,SE,129,0.0,0.0,31,0.00,,,0.00,weatherlink.com 1.10,2017-07-25 07:10:00,
2017-07-25 00:25:00,65.4,35.0,29.85,SE,129,0.0,0.0,33,0.00,,,0.00,weatherlink.com 1.10,2017-07-25 07:25:00,
2017-07-25 00:40:00,65.3,35.0,29.85,SE,130,0.0,0.0,33,0.00,,,0.00,weatherlink.com 1.10,2017-07-25 07:40:00,
2017-07-25 00:55:00,65.1,35.0,29.85,SE,127,0.0,0.0,33,0.00,,,0.00,weatherlink.com 1.10,2017-07-25 07:55:00,
2017-07-25 01:10:00,64.7,35.0,29.85,SSE,150,0.0,0.0,33,0.00,,,0.00,weatherlink.com 1.10,2017-07-25 08:10:00,
2017-07-25 01:25:00,64.3,35.0,29.85,SE,143,0.0,0.0,34,0.00,,,0.00,weatherlink.com 1.10,2017-07-25 08:25:00,
2017-07-25 01:40:00,64.3,35.0,29.86,SE,124,0.0,2.0,34,0.00,,,0.00,weatherlink.com 1.10,2017-07-25 08:40:00,
2017-07-25 01:55:00,64.4,35.0,29.86,SE,140,1.0,2.0,34,0.00,,,0.00,weatherlink.com 1.10,2017-07-25 08:55:00,
2017-07-25 02:10:00,63.2,35.0,29.86,ESE,108,0.0,1.0,35,0.00,,,0.00,weatherlink.com 1.10,2017-07-25 09:10:00,
2017-07-25 02:25:00,62.9,35.0,29.86,ESE,112,0.0,1.0,35,0.00,,,0.00,weatherlink.com 1.10,2017-07-25 09:25:00,
2017-07-25 02:40:00,63.3,34.0,29.87,ESE,108,0.0,0.0,34,0.00,,,0.00,weatherlink.com 1.10,2017-07-25 09:40:00,
2017-07-25 02:55:00,64.0,33.0,29.87,ESE,105,0.0,0.0,32,0.00,,,0.00,weatherlink.com 1.10,2017-07-25 09:55:00,
2017-07-25 03:10:00,64.0,34.0,29.87,ESE,121,0.0,0.0,33,0.00,,,0.00,weatherlink.com 1.10,2017-07-25 10:10:00,
2017-07-25 03:25:00,63.3,34.0,29.87,ESE,121,0.0,0.0,34,0.00,,,0.00,weatherlink.com 1.10,2017-07-25 10:25:00,
2017-07-25 03:40:00,62.6,34.0,29.87,ESE,122,0.0,0.0,35,0.00,,,0.00,weatherlink.com 1.10,2017-07-25 10:40:00,
2017-07-25 03:56:00,62.6,34.0,29.87,ESE,121,0.0,0.0,35,0.00,,,0.00,weatherlink.com 1.10,2017-07-25 10:56:00,
2017-07-25 04:10:00,62.7,35.0,29.87,ESE,122,0.0,0.0,35,0.00,,,0.00,weatherlink.com 1.10,2017-07-25 11:10:00,
2017-07-25 04:25:00,62.8,35.0,29.87,ESE,122,0.0,0.0,35,0.00,,,0.00,weatherlink.com 1.10,2017-07-25 11:25:00,
2017-07-25 04:40:00,62.8,35.0,29.87,ESE,122,0.0,0.0,35,0.00,,,0.00,weatherlink.com 1.10,2017-07-25 11:40:00,
2017-07-25 04:55:00,62.6,35.0,29.88,ESE,121,0.0,0.0,36,0.00,,,0.00,weatherlink.com 1.10,2017-07-25 11:55:00,
2017-07-25 05:11:00,61.8,35.0,29.88,ESE,117,0.0,1.0,37,0.00,,,0.00,weatherlink.com 1.10,2017-07-25 12:11:00,
2017-07-25 05:26:00,62.2,35.0,29.88,SE,128,0.0,0.0,36,0.00,,,0.00,weatherlink.com 1.10,2017-07-25 12:26:00,
2017-07-25 05:41:00,61.3,35.0,29.89,ESE,114,0.0,1.0,38,0.00,,,0.00,weatherlink.com 1.10,2017-07-25 12:41:00,
2017-07-25 05:56:00,61.6,35.0,29.89,ESE,121,0.0,2.0,37,0.00,,,0.00,weatherlink.com 1.10,2017-07-25 12:56:00,
2017-07-25 06:11:00,61.4,35.0,29.89,ESE,114,0.0,1.0,38,0.00,,,0.00,weatherlink.com 1.10,2017-07-25 13:11:00,
2017-07-25 06:26:00,61.5,35.0,29.89,East,88,0.0,1.0,38,0.00,,,0.00,weatherlink.com 1.10,2017-07-25 13:26:00,
2017-07-25 06:41:00,61.5,36.0,29.90,East,101,0.0,0.0,39,0.00,,,0.00,weatherlink.com 1.10,2017-07-25 13:41:00,
2017-07-25 06:56:00,62.1,36.0,29.90,SE,127,0.0,0.0,38,0.00,,,0.00,weatherlink.com 1.10,2017-07-25 13:56:00,
2017-07-25 07:11:00,62.5,37.0,29.90,SE,127,0.0,0.0,39,0.00,,,0.00,weatherlink.com 1.10,2017-07-25 14:11:00,
2017-07-25 07:26:00,63.5,39.0,29.90,SE,133,0.0,0.0,40,0.00,,,0.00,weatherlink.com 1.10,2017-07-25 14:26:00,
2017-07-25 07:41:00,66.5,38.0,29.90,SE,132,0.0,0.0,35,0.00,,,0.00,weatherlink.com 1.10,2017-07-25 14:41:00,
2017-07-25 07:56:00,69.3,39.0,29.90,SE,133,0.0,0.0,33,0.00,,,0.00,weatherlink.com 1.10,2017-07-25 14:56:00,
2017-07-25 08:11:00,69.9,39.0,29.91,SE,125,0.0,0.0,33,0.00,,,0.00,weatherlink.com 1.10,2017-07-25 15:11:00,
2017-07-25 08:26:00,69.4,39.0,29.91,West,264,0.0,0.0,33,0.00,,,0.00,weatherlink.com 1.10,2017-07-25 15:26:00,
2017-07-25 08:41:00,70.5,38.0,29.91,West,281,0.0,0.0,31,0.00,,,0.00,weatherlink.com 1.10,2017-07-25 15:41:00,
2017-07-25 08:56:00,71.1,38.0,29.91,North,352,1.0,2.0,30,0.00,,,0.00,weatherlink.com 1.10,2017-07-25 15:56:00,
2017-07-25 09:11:00,71.9,37.0,29.91,WNW,290,0.0,3.0,28,0.00,,,0.00,weatherlink.com 1.10,2017-07-25 16:11:00,
2017-07-25 09:26:00,72.7,37.0,29.91,WNW,297,0.0,3.0,27,0.00,,,0.00,weatherlink.com 1.10,2017-07-25 16:26:00,
2017-07-25 09:41:00,73.6,36.0,29.91,NW,304,0.0,2.0,25,0.00,,,0.00,weatherlink.com 1.10,2017-07-25 16:41:00,
2017-07-25 09:56:00,74.0,36.0,29.91,East,95,0.0,2.0,25,0.00,,,0.00,weatherlink.com 1.10,2017-07-25 16:56:00,
2017-07-25 10:11:00,74.2,36.0,29.91,WNW,283,0.0,4.0,25,0.00,,,0.00,weatherlink.com 1.10,2017-07-25 17:11:00,
2017-07-25 10:26:00,75.2,38.0,29.91,SE,139,2.0,6.0,26,0.00,,,0.00,weatherlink.com 1.10,2017-07-25 17:26:00,
2017-07-25 10:41:00,76.6,38.0,29.91,NNW,328,0.0,6.0,25,0.00,,,0.00,weatherlink.com 1.10,2017-07-25 17:41:00,
2017-07-25 10:56:00,77.6,38.0,29.90,West,277,0.0,6.0,24,0.00,,,0.00,weatherlink.com 1.10,2017-07-25 17:56:00,
2017-07-25 11:11:00,77.7,39.0,29.90,NW,316,1.0,6.0,25,0.00,,,0.00,weatherlink.com 1.10,2017-07-25 18:11:00,
2017-07-25 11:26:00,78.8,40.0,29.90,NW,308,3.0,9.0,25,0.00,,,0.00,weatherlink.com 1.10,2017-07-25 18:26:00,
2017-07-25 11:41:00,78.8,40.0,29.90,NNW,344,0.0,7.0,25,0.00,,,0.00,weatherlink.com 1.10,2017-07-25 18:41:00,
2017-07-25 11:56:00,80.3,39.0,29.90,North,352,3.0,7.0,23,0.00,,,0.00,weatherlink.com 1.10,2017-07-25 18:56:00,
2017-07-25 12:11:00,80.8,37.0,29.90,WNW,285,3.0,9.0,21,0.00,,,0.00,weatherlink.com 1.10,2017-07-25 19:11:00,
2017-07-25 12:26:00,81.9,37.0,29.90,NNE,23,2.0,7.0,20,0.00,,,0.00,weatherlink.com 1.10,2017-07-25 19:26:00,
2017-07-25 12:42:00,82.2,36.0,29.89,West,276,0.0,9.0,19,0.00,,,0.00,weatherlink.com 1.10,2017-07-25 19:42:00,
2017-07-25 12:57:00,-999.9,-99.9,29.89,North,-9999,-999.9,-999.0,-999,0.00,,,0.00,weatherlink.com 1.10,2017-07-25 19:57:00,